sensor_id;sensor_type;location;lat;lon;timestamp;temperature;humidity
19864;DHT22;10094;48.820;9.226;2023-04-02T00:00:27;10.00;99.90
19864;DHT22;10094;48.820;9.226;2023-04-02T00:07:30;10.00;99.90
19864;DHT22;10094;48.820;9.226;2023-04-02T00:14:20;9.90;99.90
19864;DHT22;10094;48.820;9.226;2023-04-02T00:21:23;9.90;99.90
19864;DHT22;10094;48.820;9.226;2023-04-02T00:28:28;9.80;99.90
19864;DHT22;10094;48.820;9.226;2023-04-02T00:35:24;9.80;99.90
19864;DHT22;10094;48.820;9.226;2023-04-02T00:42:10;9.80;99.90
19864;DHT22;10094;48.820;9.226;2023-04-02T00:48:58;9.70;99.90
19864;DHT22;10094;48.820;9.226;2023-04-02T00:55:42;9.70;99.90
19864;DHT22;10094;48.820;9.226;2023-04-02T01:02:30;9.70;99.90
19864;DHT22;10094;48.820;9.226;2023-04-02T01:30:16;10.10;99.90
19864;DHT22;10094;48.820;9.226;2023-04-02T01:37:05;10.10;99.90
19864;DHT22;10094;48.820;9.226;2023-04-02T01:44:05;10.20;99.90
19864;DHT22;10094;48.820;9.226;2023-04-02T01:50:50;10.20;99.90
19864;DHT22;10094;48.820;9.226;2023-04-02T01:57:34;10.30;99.90
19864;DHT22;10094;48.820;9.226;2023-04-02T02:04:17;10.20;99.90
19864;DHT22;10094;48.820;9.226;2023-04-02T02:11:01;10.30;99.90
19864;DHT22;10094;48.820;9.226;2023-04-02T02:17:44;10.30;99.90
19864;DHT22;10094;48.820;9.226;2023-04-02T02:24:31;10.20;99.90
19864;DHT22;10094;48.820;9.226;2023-04-02T02:31:21;10.30;99.90
19864;DHT22;10094;48.820;9.226;2023-04-02T02:45:12;10.30;99.90
19864;DHT22;10094;48.820;9.226;2023-04-02T02:59:04;10.40;99.90
19864;DHT22;10094;48.820;9.226;2023-04-02T03:05:59;10.40;99.90
19864;DHT22;10094;48.820;9.226;2023-04-02T03:27:17;10.30;99.90
19864;DHT22;10094;48.820;9.226;2023-04-02T03:34:15;10.20;99.90
19864;DHT22;10094;48.820;9.226;2023-04-02T03:41:14;10.20;99.90
19864;DHT22;10094;48.820;9.226;2023-04-02T03:48:04;10.20;99.90
19864;DHT22;10094;48.820;9.226;2023-04-02T03:54:49;10.20;99.90
19864;DHT22;10094;48.820;9.226;2023-04-02T04:01:41;10.10;99.90
19864;DHT22;10094;48.820;9.226;2023-04-02T04:08:41;10.10;99.90
19864;DHT22;10094;48.820;9.226;2023-04-02T04:15:46;10.10;99.90
19864;DHT22;10094;48.820;9.226;2023-04-02T04:22:30;10.10;99.90
19864;DHT22;10094;48.820;9.226;2023-04-02T04:29:50;10.20;99.90
19864;DHT22;10094;48.820;9.226;2023-04-02T04:36:41;10.20;99.90
19864;DHT22;10094;48.820;9.226;2023-04-02T04:43:52;10.20;99.90
19864;DHT22;10094;48.820;9.226;2023-04-02T04:50:53;10.20;99.90
19864;DHT22;10094;48.820;9.226;2023-04-02T04:57:41;10.20;99.90
19864;DHT22;10094;48.820;9.226;2023-04-02T05:11:25;10.30;99.90
19864;DHT22;10094;48.820;9.226;2023-04-02T05:18:21;10.30;99.90
19864;DHT22;10094;48.820;9.226;2023-04-02T05:25:20;10.30;99.90
19864;DHT22;10094;48.820;9.226;2023-04-02T05:32:14;10.30;99.90
19864;DHT22;10094;48.820;9.226;2023-04-02T05:38:59;10.30;99.90
19864;DHT22;10094;48.820;9.226;2023-04-02T05:45:56;10.50;99.90
19864;DHT22;10094;48.820;9.226;2023-04-02T05:52:54;10.50;99.90
19864;DHT22;10094;48.820;9.226;2023-04-02T05:59:45;10.60;99.90
19864;DHT22;10094;48.820;9.226;2023-04-02T06:13:27;10.70;99.90
19864;DHT22;10094;48.820;9.226;2023-04-02T06:20:14;10.50;99.90
19864;DHT22;10094;48.820;9.226;2023-04-02T06:27:03;10.50;99.90
19864;DHT22;10094;48.820;9.226;2023-04-02T06:33:50;10.60;99.90
19864;DHT22;10094;48.820;9.226;2023-04-02T06:40:50;10.70;99.90
19864;DHT22;10094;48.820;9.226;2023-04-02T06:47:51;10.90;99.90
19864;DHT22;10094;48.820;9.226;2023-04-02T06:54:43;11.00;99.90
19864;DHT22;10094;48.820;9.226;2023-04-02T07:01:29;11.10;99.90
19864;DHT22;10094;48.820;9.226;2023-04-02T07:08:13;11.20;99.90
19864;DHT22;10094;48.820;9.226;2023-04-02T07:14:55;11.00;99.90
19864;DHT22;10094;48.820;9.226;2023-04-02T07:21:38;11.00;99.90
19864;DHT22;10094;48.820;9.226;2023-04-02T07:28:22;11.20;99.90
19864;DHT22;10094;48.820;9.226;2023-04-02T07:35:05;11.10;99.90
19864;DHT22;10094;48.820;9.226;2023-04-02T07:42:00;11.10;99.90
19864;DHT22;10094;48.820;9.226;2023-04-02T07:48:43;11.50;99.90
19864;DHT22;10094;48.820;9.226;2023-04-02T07:55:26;11.70;99.90
19864;DHT22;10094;48.820;9.226;2023-04-02T08:02:19;11.90;99.90
19864;DHT22;10094;48.820;9.226;2023-04-02T08:09:02;12.20;99.90
19864;DHT22;10094;48.820;9.226;2023-04-02T08:15:44;12.20;99.90
19864;DHT22;10094;48.820;9.226;2023-04-02T08:22:27;11.90;99.90
19864;DHT22;10094;48.820;9.226;2023-04-02T08:29:10;12.10;99.90
19864;DHT22;10094;48.820;9.226;2023-04-02T08:35:53;12.40;99.90
19864;DHT22;10094;48.820;9.226;2023-04-02T08:50:04;11.90;99.90
19864;DHT22;10094;48.820;9.226;2023-04-02T08:56:58;12.00;99.90
19864;DHT22;10094;48.820;9.226;2023-04-02T09:03:47;12.00;99.90
19864;DHT22;10094;48.820;9.226;2023-04-02T09:10:38;12.30;99.90
19864;DHT22;10094;48.820;9.226;2023-04-02T09:17:24;12.80;99.90
19864;DHT22;10094;48.820;9.226;2023-04-02T09:24:10;13.10;99.90
19864;DHT22;10094;48.820;9.226;2023-04-02T09:38:23;13.80;99.90
19864;DHT22;10094;48.820;9.226;2023-04-02T09:45:21;14.00;99.90
19864;DHT22;10094;48.820;9.226;2023-04-02T09:52:27;14.60;99.90
19864;DHT22;10094;48.820;9.226;2023-04-02T09:59:15;15.40;99.90
19864;DHT22;10094;48.820;9.226;2023-04-02T10:06:12;15.00;99.90
19864;DHT22;10094;48.820;9.226;2023-04-02T10:19:47;14.70;99.90
19864;DHT22;10094;48.820;9.226;2023-04-02T10:33:36;14.60;99.90
19864;DHT22;10094;48.820;9.226;2023-04-02T10:47:25;14.80;99.90
19864;DHT22;10094;48.820;9.226;2023-04-02T11:01:08;14.50;99.90
19864;DHT22;10094;48.820;9.226;2023-04-02T11:08:18;14.70;99.90
19864;DHT22;10094;48.820;9.226;2023-04-02T11:15:02;14.40;99.90
19864;DHT22;10094;48.820;9.226;2023-04-02T11:21:50;13.90;99.90
19864;DHT22;10094;48.820;9.226;2023-04-02T11:28:41;13.80;99.90
19864;DHT22;10094;48.820;9.226;2023-04-02T11:42:26;15.20;99.90
19864;DHT22;10094;48.820;9.226;2023-04-02T11:49:35;14.30;99.90
19864;DHT22;10094;48.820;9.226;2023-04-02T11:56:51;14.40;99.90
19864;DHT22;10094;48.820;9.226;2023-04-02T12:04:06;14.80;99.90
19864;DHT22;10094;48.820;9.226;2023-04-02T12:10:59;15.50;99.90
19864;DHT22;10094;48.820;9.226;2023-04-02T12:17:42;16.00;99.50
19864;DHT22;10094;48.820;9.226;2023-04-02T12:24:26;16.10;98.10
19864;DHT22;10094;48.820;9.226;2023-04-02T12:31:14;15.50;99.20
19864;DHT22;10094;48.820;9.226;2023-04-02T12:38:00;15.60;98.80
19864;DHT22;10094;48.820;9.226;2023-04-02T12:44:47;14.60;99.90
19864;DHT22;10094;48.820;9.226;2023-04-02T12:51:31;14.20;99.90
19864;DHT22;10094;48.820;9.226;2023-04-02T12:58:36;13.40;99.90
19864;DHT22;10094;48.820;9.226;2023-04-02T13:05:37;12.90;99.90
19864;DHT22;10094;48.820;9.226;2023-04-02T13:12:38;13.00;99.90
19864;DHT22;10094;48.820;9.226;2023-04-02T13:19:31;13.10;99.90
19864;DHT22;10094;48.820;9.226;2023-04-02T13:26:17;12.80;99.90
19864;DHT22;10094;48.820;9.226;2023-04-02T13:33:01;12.60;99.90
19864;DHT22;10094;48.820;9.226;2023-04-02T13:39:43;12.40;99.90
19864;DHT22;10094;48.820;9.226;2023-04-02T13:46:28;12.10;99.90
19864;DHT22;10094;48.820;9.226;2023-04-02T13:53:20;12.00;99.90
19864;DHT22;10094;48.820;9.226;2023-04-02T14:00:03;11.70;99.90
19864;DHT22;10094;48.820;9.226;2023-04-02T14:06:54;11.90;99.90
19864;DHT22;10094;48.820;9.226;2023-04-02T14:28:32;11.40;99.90
19864;DHT22;10094;48.820;9.226;2023-04-02T14:35:32;11.20;99.90
19864;DHT22;10094;48.820;9.226;2023-04-02T14:42:33;11.10;99.90
19864;DHT22;10094;48.820;9.226;2023-04-02T14:49:31;11.10;99.90
19864;DHT22;10094;48.820;9.226;2023-04-02T14:56:23;11.40;99.90
19864;DHT22;10094;48.820;9.226;2023-04-02T15:03:14;11.30;99.90
19864;DHT22;10094;48.820;9.226;2023-04-02T15:16:50;10.90;99.90
19864;DHT22;10094;48.820;9.226;2023-04-02T15:30:29;10.20;99.90
19864;DHT22;10094;48.820;9.226;2023-04-02T15:37:25;10.10;99.90
19864;DHT22;10094;48.820;9.226;2023-04-02T15:44:13;10.00;99.90
19864;DHT22;10094;48.820;9.226;2023-04-02T15:51:06;9.70;99.90
19864;DHT22;10094;48.820;9.226;2023-04-02T16:06:08;9.60;99.90
19864;DHT22;10094;48.820;9.226;2023-04-02T16:12:58;9.50;99.90
19864;DHT22;10094;48.820;9.226;2023-04-02T16:34:05;9.30;99.90
19864;DHT22;10094;48.820;9.226;2023-04-02T16:41:18;9.40;99.90
19864;DHT22;10094;48.820;9.226;2023-04-02T16:55:32;9.20;99.90
19864;DHT22;10094;48.820;9.226;2023-04-02T17:09:26;9.10;99.90
19864;DHT22;10094;48.820;9.226;2023-04-02T17:23:01;8.70;99.90
19864;DHT22;10094;48.820;9.226;2023-04-02T17:29:50;8.60;99.90
19864;DHT22;10094;48.820;9.226;2023-04-02T17:43:55;8.40;99.90
19864;DHT22;10094;48.820;9.226;2023-04-02T17:50:50;8.20;99.90
19864;DHT22;10094;48.820;9.226;2023-04-02T18:04:52;8.10;99.90
19864;DHT22;10094;48.820;9.226;2023-04-02T18:19:07;8.10;99.90
19864;DHT22;10094;48.820;9.226;2023-04-02T18:26:02;7.70;99.90
19864;DHT22;10094;48.820;9.226;2023-04-02T18:47:27;7.30;99.90
19864;DHT22;10094;48.820;9.226;2023-04-02T18:54:33;7.10;99.90
19864;DHT22;10094;48.820;9.226;2023-04-02T19:01:30;7.00;99.90
19864;DHT22;10094;48.820;9.226;2023-04-02T19:15:15;6.50;99.90
19864;DHT22;10094;48.820;9.226;2023-04-02T19:22:12;6.40;99.90
19864;DHT22;10094;48.820;9.226;2023-04-02T19:36:30;6.30;99.90
19864;DHT22;10094;48.820;9.226;2023-04-02T19:43:15;6.30;99.90
19864;DHT22;10094;48.820;9.226;2023-04-02T19:49:57;6.30;99.90
19864;DHT22;10094;48.820;9.226;2023-04-02T19:56:40;6.30;99.90
19864;DHT22;10094;48.820;9.226;2023-04-02T20:03:23;6.10;99.90
19864;DHT22;10094;48.820;9.226;2023-04-02T20:10:06;6.10;99.90
19864;DHT22;10094;48.820;9.226;2023-04-02T20:16:49;6.00;99.90
19864;DHT22;10094;48.820;9.226;2023-04-02T20:23:32;5.90;99.90
19864;DHT22;10094;48.820;9.226;2023-04-02T20:30:15;5.90;99.90
19864;DHT22;10094;48.820;9.226;2023-04-02T20:36:57;5.70;99.90
19864;DHT22;10094;48.820;9.226;2023-04-02T20:43:40;5.70;99.90
19864;DHT22;10094;48.820;9.226;2023-04-02T20:50:23;5.70;99.90
19864;DHT22;10094;48.820;9.226;2023-04-02T20:57:06;5.70;99.90
19864;DHT22;10094;48.820;9.226;2023-04-02T21:03:53;5.70;99.90
19864;DHT22;10094;48.820;9.226;2023-04-02T21:10:36;5.70;99.90
19864;DHT22;10094;48.820;9.226;2023-04-02T21:17:19;5.60;99.90
19864;DHT22;10094;48.820;9.226;2023-04-02T21:24:04;5.50;99.90
19864;DHT22;10094;48.820;9.226;2023-04-02T21:30:47;5.60;99.90
19864;DHT22;10094;48.820;9.226;2023-04-02T21:37:29;5.60;99.90
19864;DHT22;10094;48.820;9.226;2023-04-02T21:44:13;5.60;99.90
19864;DHT22;10094;48.820;9.226;2023-04-02T21:51:14;5.60;99.90
19864;DHT22;10094;48.820;9.226;2023-04-02T21:57:56;5.70;99.90
19864;DHT22;10094;48.820;9.226;2023-04-02T22:04:38;5.50;99.90
19864;DHT22;10094;48.820;9.226;2023-04-02T22:11:31;5.60;99.90
19864;DHT22;10094;48.820;9.226;2023-04-02T22:18:13;5.60;99.90
19864;DHT22;10094;48.820;9.226;2023-04-02T22:24:56;5.40;99.90
19864;DHT22;10094;48.820;9.226;2023-04-02T22:31:38;5.40;99.90
19864;DHT22;10094;48.820;9.226;2023-04-02T22:38:20;5.40;99.90
19864;DHT22;10094;48.820;9.226;2023-04-02T22:45:03;5.40;99.90
19864;DHT22;10094;48.820;9.226;2023-04-02T22:51:46;5.40;99.90
19864;DHT22;10094;48.820;9.226;2023-04-02T22:58:28;5.30;99.90
19864;DHT22;10094;48.820;9.226;2023-04-02T23:05:11;5.20;99.90
19864;DHT22;10094;48.820;9.226;2023-04-02T23:11:53;5.20;99.90
19864;DHT22;10094;48.820;9.226;2023-04-02T23:18:37;5.10;99.90
19864;DHT22;10094;48.820;9.226;2023-04-02T23:25:19;5.10;99.90
19864;DHT22;10094;48.820;9.226;2023-04-02T23:32:02;5.10;99.90
19864;DHT22;10094;48.820;9.226;2023-04-02T23:38:44;5.00;99.90
19864;DHT22;10094;48.820;9.226;2023-04-02T23:45:27;5.00;99.90
19864;DHT22;10094;48.820;9.226;2023-04-02T23:52:09;4.90;99.90
19864;DHT22;10094;48.820;9.226;2023-04-02T23:58:51;4.80;99.90
